createdAt,value
2022-08-10T00:02:06.840Z,16.60
2022-08-10T00:07:32.643Z,16.50
2022-08-10T00:12:54.686Z,16.50
2022-08-10T00:18:28.913Z,16.50
2022-08-10T00:23:39.692Z,16.60
2022-08-10T00:28:48.260Z,16.90
2022-08-10T00:34:07.542Z,17.00
2022-08-10T00:39:25.352Z,17.10
2022-08-10T00:45:17.272Z,17.30
2022-08-10T01:02:48.492Z,17.20
2022-08-10T01:08:13.714Z,17.00
2022-08-10T01:14:38.536Z,16.90
2022-08-10T01:39:31.192Z,17.20
2022-08-10T01:46:03.733Z,16.90
2022-08-10T01:51:54.833Z,16.80
2022-08-10T01:57:29.518Z,16.80
2022-08-10T02:02:43.863Z,16.70
2022-08-10T02:08:02.201Z,16.50
2022-08-10T02:13:19.257Z,16.50
2022-08-10T02:18:42.034Z,16.40
2022-08-10T02:24:15.447Z,16.40
2022-08-10T02:36:01.380Z,16.10
2022-08-10T02:45:02.365Z,16.10
2022-08-10T02:52:49.828Z,16.00
2022-08-10T02:58:18.072Z,15.90
2022-08-10T03:03:34.118Z,15.90
2022-08-10T03:09:15.257Z,15.80
2022-08-10T03:20:36.534Z,15.70
2022-08-10T03:26:06.514Z,15.60
2022-08-10T03:31:27.669Z,15.40
2022-08-10T03:37:02.792Z,15.40
2022-08-10T03:42:22.124Z,15.40
2022-08-10T03:47:49.407Z,15.40
2022-08-10T03:53:25.169Z,15.30
2022-08-10T03:59:06.600Z,15.30
2022-08-10T04:04:23.731Z,15.30
2022-08-10T04:15:41.308Z,15.20
2022-08-10T04:21:39.298Z,15.10
2022-08-10T04:27:11.263Z,15.10
2022-08-10T04:33:05.433Z,15.20
2022-08-10T04:49:54.135Z,15.80
2022-08-10T04:55:23.025Z,16.00
2022-08-10T05:01:08.595Z,16.10
2022-08-10T05:07:18.779Z,16.20
2022-08-10T05:12:54.778Z,16.20
2022-08-10T05:18:45.811Z,16.20
2022-08-10T05:30:08.985Z,16.40
2022-08-10T05:35:27.955Z,16.80
2022-08-10T05:41:06.769Z,17.10
2022-08-10T05:46:21.037Z,17.30
2022-08-10T05:51:30.798Z,17.40
2022-08-10T06:02:33.779Z,17.50
2022-08-10T06:07:57.996Z,17.60
2022-08-10T06:19:08.482Z,17.80
2022-08-10T06:24:33.745Z,17.90
2022-08-10T06:29:48.707Z,18.00
2022-08-10T06:35:04.211Z,18.20
2022-08-10T06:40:42.427Z,18.30
2022-08-10T06:46:26.412Z,18.40
2022-08-10T06:51:39.465Z,18.70
2022-08-10T06:57:08.178Z,19.00
2022-08-10T07:02:21.642Z,19.20
2022-08-10T07:07:30.032Z,20.40
2022-08-10T07:12:39.978Z,21.10
2022-08-10T07:18:32.594Z,21.80
2022-08-10T07:23:57.700Z,22.40
2022-08-10T07:29:54.476Z,23.20
2022-08-10T07:41:21.700Z,24.30
2022-08-10T07:52:26.718Z,25.50
2022-08-10T07:57:46.636Z,26.10
2022-08-10T08:08:32.631Z,25.60
2022-08-10T08:13:46.177Z,25.70
2022-08-10T08:19:27.836Z,26.00
2022-08-10T08:24:46.367Z,25.50
2022-08-10T08:35:38.739Z,24.90
2022-08-10T08:41:28.873Z,24.30
2022-08-10T08:46:59.281Z,24.20
2022-08-10T08:52:26.927Z,24.10
2022-08-10T08:57:49.495Z,24.10
2022-08-10T09:04:21.152Z,24.40
2022-08-10T09:09:52.900Z,24.80
2022-08-10T09:15:06.692Z,25.30
2022-08-10T09:20:32.833Z,25.30
2022-08-10T09:25:51.122Z,25.60
2022-08-10T09:31:22.772Z,25.70
2022-08-10T09:42:49.728Z,26.00
2022-08-10T09:48:19.133Z,26.20
2022-08-10T09:53:43.631Z,26.40
2022-08-10T09:59:29.263Z,26.60
2022-08-10T10:05:19.538Z,27.20
2022-08-10T10:10:47.806Z,27.20
2022-08-10T10:16:23.569Z,27.00
2022-08-10T10:21:55.406Z,27.30
2022-08-10T10:27:20.214Z,27.70
2022-08-10T10:32:37.364Z,27.50
2022-08-10T10:38:00.959Z,27.50
2022-08-10T10:43:36.936Z,27.40
2022-08-10T10:49:08.697Z,27.70
2022-08-10T10:54:47.868Z,27.80
2022-08-10T11:00:11.314Z,28.00
2022-08-10T11:05:39.722Z,28.10
2022-08-10T11:12:00.338Z,28.00
2022-08-10T11:17:40.329Z,28.40
2022-08-10T11:23:33.633Z,28.30
2022-08-10T11:29:07.731Z,28.30
2022-08-10T11:34:49.377Z,28.20
2022-08-10T11:40:31.299Z,28.50
2022-08-10T11:45:52.203Z,28.60
2022-08-10T11:51:04.374Z,28.70
2022-08-10T11:56:11.284Z,28.60
2022-08-10T12:01:17.563Z,28.70
2022-08-10T12:06:39.175Z,28.80
2022-08-10T12:11:50.431Z,29.20
2022-08-10T12:17:19.307Z,29.30
2022-08-10T12:22:57.678Z,29.40
2022-08-10T12:28:16.001Z,29.50
2022-08-10T12:33:28.735Z,29.70
2022-08-10T12:39:11.728Z,29.70
2022-08-10T12:45:17.807Z,29.40
2022-08-10T12:50:47.408Z,29.20
2022-08-10T12:55:52.914Z,29.40
2022-08-10T13:01:17.475Z,29.50
2022-08-10T13:06:30.917Z,29.30
2022-08-10T13:12:37.876Z,29.50
2022-08-10T13:17:39.651Z,29.30
2022-08-10T13:22:59.902Z,29.30
2022-08-10T13:28:36.180Z,29.20
2022-08-10T13:34:41.361Z,29.50
2022-08-10T13:38:58.391Z,29.20
2022-08-10T13:44:42.143Z,29.30
2022-08-10T13:49:48.354Z,29.60
2022-08-10T13:54:55.085Z,29.80
2022-08-10T14:00:36.328Z,29.30
2022-08-10T14:05:34.875Z,29.00
2022-08-10T14:11:09.139Z,29.40
2022-08-10T14:16:21.739Z,29.40
2022-08-10T14:21:26.228Z,29.40
2022-08-10T14:26:34.865Z,29.40
2022-08-10T14:32:00.785Z,29.30
2022-08-10T14:37:14.886Z,29.00
2022-08-10T14:42:31.642Z,28.80
2022-08-10T14:47:53.579Z,28.70
2022-08-10T14:53:15.662Z,28.70
2022-08-10T14:58:34.211Z,28.40
2022-08-10T15:03:59.466Z,28.20
2022-08-10T15:09:19.788Z,28.00
2022-08-10T15:14:43.449Z,27.80
2022-08-10T15:25:57.793Z,27.50
2022-08-10T15:31:01.151Z,27.60
2022-08-10T15:36:29.619Z,27.40
2022-08-10T15:41:58.582Z,27.40
2022-08-10T15:47:46.314Z,27.30
2022-08-10T15:53:09.883Z,27.30
2022-08-10T15:59:08.362Z,27.40
2022-08-10T16:04:39.142Z,27.40
2022-08-10T16:10:24.576Z,27.70
2022-08-10T16:15:27.539Z,27.90
2022-08-10T16:20:53.493Z,27.60
2022-08-10T16:26:14.432Z,27.50
2022-08-10T16:31:26.317Z,27.50
2022-08-10T16:36:54.015Z,27.20
2022-08-10T16:42:05.627Z,27.00
2022-08-10T16:47:13.716Z,26.80
2022-08-10T16:52:22.064Z,26.80
2022-08-10T16:57:26.865Z,26.70
2022-08-10T17:02:37.344Z,26.70
2022-08-10T17:07:51.025Z,26.80
2022-08-10T17:12:57.179Z,26.70
2022-08-10T17:18:08.451Z,26.50
2022-08-10T17:23:17.199Z,26.40
2022-08-10T17:28:35.074Z,26.50
2022-08-10T17:33:42.350Z,26.30
2022-08-10T17:39:11.115Z,26.00
2022-08-10T17:44:14.979Z,26.00
2022-08-10T17:49:19.352Z,26.00
2022-08-10T17:54:31.581Z,26.20
2022-08-10T17:59:37.000Z,26.20
2022-08-10T18:10:22.097Z,26.00
2022-08-10T18:15:27.534Z,26.00
2022-08-10T18:20:44.911Z,26.10
2022-08-10T18:25:48.830Z,25.90
2022-08-10T18:31:18.664Z,25.70
2022-08-10T18:36:22.262Z,25.40
2022-08-10T18:41:36.654Z,25.20
2022-08-10T18:46:49.151Z,25.00
2022-08-10T18:52:10.437Z,24.80
2022-08-10T18:58:11.843Z,24.50
2022-08-10T19:03:57.668Z,24.10
2022-08-10T19:09:47.495Z,23.80
2022-08-10T19:15:39.943Z,23.70
2022-08-10T19:20:59.965Z,23.40
2022-08-10T19:26:44.409Z,23.10
2022-08-10T19:32:17.471Z,22.90
2022-08-10T19:37:38.297Z,22.70
2022-08-10T19:42:54.946Z,22.50
2022-08-10T19:48:27.725Z,22.20
2022-08-10T19:54:01.626Z,22.10
2022-08-10T20:00:17.011Z,21.80
2022-08-10T20:04:57.391Z,21.60
2022-08-10T20:10:07.356Z,21.30
2022-08-10T20:15:44.620Z,21.20
2022-08-10T20:20:54.179Z,21.20
2022-08-10T20:26:02.477Z,21.10
2022-08-10T20:31:32.900Z,21.00
2022-08-10T20:36:41.904Z,20.80
2022-08-10T20:42:06.574Z,20.70
2022-08-10T20:47:54.104Z,20.60
2022-08-10T20:53:01.649Z,20.40
2022-08-10T20:58:36.790Z,20.20
2022-08-10T21:04:00.549Z,20.20
2022-08-10T21:09:29.652Z,20.20
2022-08-10T21:14:53.607Z,20.10
2022-08-10T21:20:14.843Z,20.20
2022-08-10T21:25:19.538Z,20.20
2022-08-10T21:30:29.446Z,20.10
2022-08-10T21:35:42.615Z,20.00
2022-08-10T21:41:17.962Z,20.00
2022-08-10T21:46:31.757Z,19.90
2022-08-10T21:52:09.245Z,19.80
2022-08-10T21:57:45.703Z,19.90
2022-08-10T22:03:09.443Z,19.80
2022-08-10T22:08:35.060Z,19.90
2022-08-10T22:14:05.487Z,20.00
2022-08-10T22:19:26.766Z,19.80
2022-08-10T22:25:31.692Z,19.70
2022-08-10T22:37:05.082Z,20.20
2022-08-10T22:42:59.668Z,20.40
2022-08-10T22:48:30.961Z,20.50
2022-08-10T22:54:07.129Z,20.50
2022-08-10T22:59:10.894Z,20.50
2022-08-10T23:04:35.731Z,20.50
2022-08-10T23:09:42.935Z,20.50
2022-08-10T23:15:00.270Z,20.40
2022-08-10T23:20:12.920Z,20.20
2022-08-10T23:25:28.300Z,20.10
2022-08-10T23:30:49.300Z,20.00
2022-08-10T23:36:30.664Z,19.90
2022-08-10T23:41:37.222Z,19.80
2022-08-10T23:46:47.162Z,19.70
2022-08-10T23:51:55.698Z,19.60
2022-08-10T23:57:01.876Z,19.50
